Flood From: 18-02-2018 16:00 Until: 19-02-2018 16:00 warning for: Flood Level: Yellow info button

Although rather usual in this region, locally or potentially dangerous phenomena are expected. (such as local winds, summer thunderstorms, rising streams or high waves) Be aware and pay attention to the latest weather updates, especially if you carry out activities exposed to weather or close to a stream or shoreline. 


Meteo18 Weather Cam more information Meteo18 Weather Cam


Thunder radar more information blitzortung!


Rain radar more information rain snow radar


Visit our other weather sites:

Template documentation
and downloads

And another site



Weather Underground History page Text

Daily Summary for February 4, 2016 Units:  Metric    English   Both
« Previous Day
Next Day »
Daily Weekly Monthly Yearly Custom
  High: Low: Average:
Temperature: -17.8 °C -17.8 °C -15 °C
Dew Point: -17.8 °C -18.2 °C -15.5 °C
Humidity: Humidity % 84 % 94 %
Wind Speed: 0 km/h 0 km/h 3.2 km/h
Wind Gust: 0 km/h - -
Wind:- - SW
Pressure: 0 hPa 34852.1 hPa -
Precipitation: 45.72 mm    
Historical Graphs
 
 
Tabular Data for February 4, 2016
Time Temperature Dew Point Pressure Wind Wind Speed Wind Gust Humidity Rainfall Rate (Hourly)
-17.8 °C -17.8 °C 0 hPa Calm     Humidity % 0 mm
00:07 -15.2 °C -16.3 °C 34957.1 hPa Calm   5.1 km/h 86 % 0 mm
00:12 -15.2 °C -16.3 °C 34957.1 hPa SW 2.6 km/h 5.1 km/h 86 % 0 mm
00:17 -15.1 °C -16.4 °C 34957.1 hPa Calm   5.1 km/h 85 % 0 mm
00:27 -15.1 °C -16.3 °C 34957.1 hPa Calm   12.9 km/h 85 % 0 mm
00:34 -15.1 °C -16.4 °C 34967.2 hPa South 5.1 km/h 12.9 km/h 84 % 0 mm
00:42 -15.1 °C -16.4 °C 34967.2 hPa Calm   12.9 km/h 84 % 0 mm
00:47 -15.1 °C -16.3 °C 34967.2 hPa Calm   12.9 km/h 85 % 0 mm
00:57 -15.1 °C -16.4 °C 34967.2 hPa Calm   15.6 km/h 84 % 0 mm
01:02 -15.1 °C -16.3 °C 34967.2 hPa Calm   15.6 km/h 85 % 0 mm
01:12 -15.1 °C -16.3 °C 34967.2 hPa Calm   10.3 km/h 85 % 0 mm
01:22 -15.1 °C -16.3 °C 34957.1 hPa Calm   12.9 km/h 85 % 0 mm
01:27 -15.1 °C -16.3 °C 34957.1 hPa South 2.6 km/h 12.9 km/h 85 % 0 mm
01:37 -15.1 °C -16.3 °C 34957.1 hPa Calm   7.7 km/h 85 % 0 mm
01:47 -15.1 °C -16.4 °C 34957.1 hPa Calm   12.9 km/h 85 % 0 mm
01:57 -15.2 °C -16.4 °C 34967.2 hPa WSW 2.6 km/h 15.6 km/h 85 % 0 mm
02:07 -15.3 °C -16.6 °C 34980.8 hPa SSE 2.6 km/h 5.1 km/h 85 % 0 mm
02:17 -15.6 °C -16.7 °C 34980.8 hPa Calm   5.1 km/h 86 % 0 mm
02:22 -15.6 °C -16.7 °C 34980.8 hPa NE 2.6 km/h 5.1 km/h 87 % 0 mm
02:42 -15.8 °C -16.9 °C 34990.9 hPa Calm   5.1 km/h 87 % 0 mm
02:47 -15.8 °C -16.9 °C 34990.9 hPa Calm   5.1 km/h 87 % 0 mm
02:52 -15.9 °C -17 °C 34990.9 hPa Calm   5.1 km/h 87 % 0 mm
02:57 -16 °C -17.1 °C 34990.9 hPa Calm   5.1 km/h 87 % 0 mm
03:02 -16.1 °C -16.9 °C 34990.9 hPa Calm   2.6 km/h 89 % 0 mm
03:07 -16 °C -16.9 °C 34990.9 hPa Calm   2.6 km/h 89 % 0 mm
03:12 -15.9 °C -16.8 °C 34990.9 hPa Calm   2.6 km/h 89 % 0 mm
03:22 -15.9 °C -16.8 °C 34990.9 hPa Calm   2.6 km/h 89 % 0 mm
03:32 -16.1 °C -16.9 °C 34990.9 hPa Calm   2.6 km/h 89 % 0 mm
03:52 -16.3 °C -17.1 °C 34990.9 hPa Calm   2.6 km/h 91 % 0 mm
03:57 -16.3 °C -17.1 °C 34990.9 hPa Calm   2.6 km/h 91 % 0 mm
04:02 -16.4 °C -17.1 °C 34990.9 hPa Calm   2.6 km/h 92 % 0 mm
04:12 -16.6 °C -17.2 °C 34980.8 hPa Calm   2.6 km/h 92 % 0 mm
04:17 -16.7 °C -17.3 °C 34990.9 hPa Calm     92 % 0 mm
04:27 -16.8 °C -17.5 °C 34990.9 hPa Calm     92 % 0 mm
04:32 -16.9 °C -17.4 °C 34990.9 hPa Calm   2.6 km/h 93 % 0 mm
04:42 -16.8 °C -17.3 °C 34980.8 hPa Calm   2.6 km/h 94 % 0 mm
04:52 -16.9 °C -17.5 °C 34980.8 hPa Calm   2.6 km/h 93 % 0 mm
04:57 -16.9 °C -17.4 °C 34980.8 hPa Calm   2.6 km/h 94 % 0 mm
05:02 -17 °C -17.6 °C 34980.8 hPa Calm   2.6 km/h 93 % 0 mm
05:07 -17.1 °C -17.6 °C 34980.8 hPa Calm   2.6 km/h 93 % 0 mm
05:17 -17.3 °C -17.8 °C 34980.8 hPa Calm     93 % 0 mm
05:27 -17.4 °C -17.9 °C 34980.8 hPa Calm     94 % 0 mm
05:37 -17.5 °C -18 °C 34980.8 hPa Calm     94 % 0 mm
05:42 -17.6 °C -17.9 °C 34990.9 hPa Calm     95 % 0 mm
05:52 -17.6 °C -18 °C 34990.9 hPa Calm     95 % 0 mm
06:02 -17.7 °C -18.1 °C 34990.9 hPa Calm     95 % 0 mm
06:12 -17.8 °C -18.2 °C 34990.9 hPa Calm     95 % 0 mm
06:19 -17.8 °C -18.2 °C 34990.9 hPa Calm     95 % 0 mm
06:27 -17.5 °C -17.8 °C 34980.8 hPa Calm     96 % 0 mm
06:32 -17.2 °C -17.4 °C 34980.8 hPa Calm     97 % 0 mm
06:42 -16.7 °C -16.9 °C 34980.8 hPa WSW 2.6 km/h 2.6 km/h 97 % 0 mm
06:47 -16.7 °C -17.2 °C 34980.8 hPa Calm   2.6 km/h 94 % 0 mm
06:57 -16.5 °C -17.1 °C 34990.9 hPa SW 2.6 km/h 5.1 km/h 93 % 0 mm
07:02 -16.5 °C -17.1 °C 34990.9 hPa Calm   7.7 km/h 93 % 0 mm
07:09 -16.5 °C -17.1 °C 34990.9 hPa Calm   7.7 km/h 93 % 0 mm
07:17 -16.4 °C -17 °C 35001.1 hPa Calm   7.7 km/h 93 % 0 mm
07:27 -16.4 °C -17.1 °C 34990.9 hPa WSW 5.1 km/h 12.9 km/h 92 % 0 mm
07:37 -16.4 °C -17.1 °C 34980.8 hPa SW 2.6 km/h 12.9 km/h 92 % 0 mm
07:42 -16.4 °C -17.1 °C 34980.8 hPa Calm   12.9 km/h 92 % 0 mm
07:52 -16.6 °C -17.2 °C 34980.8 hPa West 2.6 km/h 7.7 km/h 92 % 0 mm
08:02 -16.6 °C -17.2 °C 34990.9 hPa SW 2.6 km/h 7.7 km/h 93 % 0 mm
08:17 -16.6 °C -17.1 °C 34990.9 hPa SW 2.6 km/h 15.6 km/h 94 % 0 mm
08:22 -16.6 °C -17.1 °C 34990.9 hPa Calm   7.7 km/h 94 % 0 mm
08:32 -16.6 °C -17.1 °C 34990.9 hPa SW 7.7 km/h 10.3 km/h 94 % 0 mm
08:37 -16.6 °C -17.1 °C 34990.9 hPa SW 5.1 km/h 10.3 km/h 94 % 0 mm
08:42 -16.6 °C -17.1 °C 34990.9 hPa SW 5.1 km/h 18.2 km/h 94 % 0 mm
08:52 -16.6 °C -17.1 °C 34990.9 hPa WSW 7.7 km/h 15.6 km/h 94 % 0 mm
09:02 -16.6 °C -17.1 °C 34990.9 hPa SW 5.1 km/h 15.6 km/h 94 % 0 mm
09:07 -16.6 °C -17.2 °C 34980.8 hPa Calm   15.6 km/h 93 % 0 mm
09:17 -16.6 °C -17.2 °C 34980.8 hPa WSW 10.3 km/h 20.8 km/h 93 % 0 mm
09:22 -16.6 °C -17.2 °C 34980.8 hPa WSW 15.6 km/h 20.8 km/h 93 % 0 mm
09:32 -16.6 °C -17.2 °C 34980.8 hPa WSW 2.6 km/h 23.3 km/h 93 % 0 mm
09:37 -16.6 °C -17.2 °C 34980.8 hPa SW 10.3 km/h 20.8 km/h 93 % 0 mm
09:42 -16.6 °C -17.1 °C 34980.8 hPa WSW 7.7 km/h 23.3 km/h 93 % 0 mm
09:47 -16.6 °C -17.1 °C 34980.8 hPa SW 2.6 km/h 23.3 km/h 93 % 0 mm
09:52 -16.5 °C -17 °C 34990.9 hPa SW 10.3 km/h 15.6 km/h 94 % 0 mm
09:57 -16.4 °C -17 °C 34990.9 hPa Calm   15.6 km/h 93 % 0 mm
10:07 -16.3 °C -16.9 °C 34990.9 hPa SW 5.1 km/h 12.9 km/h 93 % 0 mm
10:12 -16.3 °C -16.9 °C 34980.8 hPa SW 5.1 km/h 12.9 km/h 92 % 0 mm
10:27 -16.2 °C -16.9 °C 34980.8 hPa WSW 2.6 km/h 18.2 km/h 92 % 0 mm
10:37 -16.1 °C -16.8 °C 34990.9 hPa West 7.7 km/h 15.6 km/h 92 % 0 mm
10:42 -16.1 °C -16.7 °C 34980.8 hPa SW 5.1 km/h 15.6 km/h 92 % 0 mm
10:52 -16.1 °C -16.6 °C 34990.9 hPa WSW 5.1 km/h 18.2 km/h 93 % 0 mm
10:57 -16 °C -16.5 °C 34980.8 hPa SW 5.1 km/h 18.2 km/h 94 % 0 mm
11:02 -16 °C -16.4 °C 34980.8 hPa SW 7.7 km/h 18.2 km/h 95 % 0 mm
11:07 -15.9 °C -16.3 °C 34980.8 hPa WSW 5.1 km/h 18.2 km/h 95 % 0 mm
11:12 -15.9 °C -16.3 °C 34980.8 hPa SW 7.7 km/h 18.2 km/h 95 % 7.62 mm
11:22 -15.9 °C -16.3 °C 34980.8 hPa SW 12.9 km/h 18.2 km/h 95 % 7.62 mm
11:32 -15.8 °C -16.2 °C 34980.8 hPa SW 5.1 km/h 20.8 km/h 96 % 7.62 mm
11:37 -15.8 °C -16.1 °C 34980.8 hPa SW 7.7 km/h 20.8 km/h 96 % 7.62 mm
11:42 -15.7 °C -16.1 °C 34967.2 hPa West 7.7 km/h 20.8 km/h 96 % 7.62 mm
11:52 -15.6 °C -15.8 °C 34957.1 hPa SW 10.3 km/h 20.8 km/h 97 % 12.7 mm
12:07 -15.4 °C -15.6 °C 34946.9 hPa SW 10.3 km/h 20.8 km/h 97 % 12.7 mm
12:13 -15.4 °C -15.6 °C 34946.9 hPa WSW 7.7 km/h 23.3 km/h 97 % 12.7 mm
12:23 -15.3 °C -15.6 °C 34933.4 hPa WSW 2.6 km/h 28.5 km/h 97 % 12.7 mm
12:32 -15.3 °C -15.6 °C 34933.4 hPa WSW 12.9 km/h 23.3 km/h 96 % 12.7 mm
12:37 -15.2 °C -15.4 °C 34923.2 hPa SW 18.2 km/h 20.8 km/h 97 % 12.7 mm
12:47 -15.2 °C -15.4 °C 34923.2 hPa SW 5.1 km/h 25.9 km/h 97 % 12.7 mm
12:52 -15.1 °C -15.4 °C 34923.2 hPa SW 10.3 km/h 25.9 km/h 96 % 12.7 mm
13:09 -15.1 °C -15.3 °C 34909.7 hPa WSW 7.7 km/h 28.5 km/h 97 % 7.62 mm
13:17 -14.9 °C -15.2 °C 34909.7 hPa SW 7.7 km/h 25.9 km/h 97 % 12.7 mm
13:27 -14.9 °C -15.2 °C 34899.5 hPa SW 10.3 km/h 25.9 km/h 96 % 12.7 mm
13:37 -14.8 °C -15.1 °C 34899.5 hPa SW 12.9 km/h 23.3 km/h 97 % 7.62 mm
13:42 -14.8 °C -15 °C 34899.5 hPa SW 7.7 km/h 23.3 km/h 97 % 7.62 mm
13:49 -14.7 °C -15 °C 34889.3 hPa WSW 15.6 km/h 23.3 km/h 96 % 7.62 mm
13:57 -14.6 °C -14.9 °C 34889.3 hPa SW 15.6 km/h 25.9 km/h 96 % 7.62 mm
14:02 -14.6 °C -14.9 °C 34889.3 hPa SW 2.6 km/h 25.9 km/h 96 % 7.62 mm
14:07 -14.5 °C -14.8 °C 34889.3 hPa SSE 2.6 km/h 25.9 km/h 96 % 7.62 mm
14:17 -14.4 °C -14.7 °C 34889.3 hPa WNW 5.1 km/h 25.9 km/h 96 % 0 mm
14:27 -14.3 °C -14.7 °C 34875.8 hPa SW 5.1 km/h 28.5 km/h 96 % 0 mm
14:37 -14.3 °C -14.6 °C 34875.8 hPa SSW 5.1 km/h 25.9 km/h 96 % 0 mm
14:42 -14.3 °C -14.6 °C 34875.8 hPa SW 7.7 km/h 23.3 km/h 96 % 0 mm
14:52 -14.3 °C -14.7 °C 34875.8 hPa SSW 5.1 km/h 23.3 km/h 96 % 7.62 mm
15:02 -14.3 °C -14.6 °C 34875.8 hPa SSW 5.1 km/h 33.6 km/h 96 % 7.62 mm
15:07 -14.3 °C -14.6 °C 34875.8 hPa Calm   33.6 km/h 96 % 7.62 mm
15:12 -14.2 °C -14.6 °C 34865.6 hPa Calm   20.8 km/h 96 % 7.62 mm
15:22 -14.1 °C -14.4 °C 34865.6 hPa SW 10.3 km/h 15.6 km/h 96 % 7.62 mm
15:27 -14.1 °C -14.4 °C 34865.6 hPa SE 5.1 km/h 15.6 km/h 96 % 7.62 mm
15:37 -14 °C -14.3 °C 34865.6 hPa SW 10.3 km/h 15.6 km/h 96 % 7.62 mm
15:42 -14 °C -14.3 °C 34865.6 hPa SW 7.7 km/h 15.6 km/h 96 % 0 mm
15:59 -13.9 °C -14.2 °C 34865.6 hPa SW 5.1 km/h 18.2 km/h 97 % 0 mm
16:08 -13.9 °C -14.1 °C 34865.6 hPa WSW 10.3 km/h 18.2 km/h 97 % 0 mm
16:17 -13.8 °C -14.1 °C 34865.6 hPa SW 5.1 km/h 18.2 km/h 97 % 0 mm
16:27 -13.8 °C -14.1 °C 34865.6 hPa SW 5.1 km/h 18.2 km/h 97 % 7.62 mm
16:37 -13.8 °C -14 °C 34852.1 hPa SW 5.1 km/h 20.8 km/h 97 % 7.62 mm
16:42 -13.8 °C -14 °C 34865.6 hPa ESE 7.7 km/h 20.8 km/h 97 % 7.62 mm
16:47 -13.8 °C -14 °C 34865.6 hPa SW 2.6 km/h 18.2 km/h 97 % 7.62 mm
16:57 -13.7 °C -13.9 °C 34865.6 hPa WSW 7.7 km/h 15.6 km/h 97 % 7.62 mm
17:02 -13.7 °C -13.9 °C 34865.6 hPa SSW 2.6 km/h 18.2 km/h 97 % 7.62 mm
17:07 -13.7 °C -13.9 °C 34865.6 hPa SW 10.3 km/h 18.2 km/h 97 % 7.62 mm
17:17 -13.7 °C -13.9 °C 34865.6 hPa SW 5.1 km/h 15.6 km/h 97 % 7.62 mm
17:27 -13.7 °C -13.9 °C 34865.6 hPa SW 2.6 km/h 15.6 km/h 97 % 0 mm
17:37 -13.7 °C -13.9 °C 34865.6 hPa SW 12.9 km/h 12.9 km/h 97 % 0 mm
17:42 -13.7 °C -13.9 °C 34865.6 hPa West 7.7 km/h 15.6 km/h 97 % 0 mm
17:52 -13.6 °C -13.8 °C 34865.6 hPa WSW 5.1 km/h 15.6 km/h 97 % 0 mm
17:57 -13.6 °C -13.8 °C 34865.6 hPa SSW 2.6 km/h 12.9 km/h 97 % 0 mm
18:04 -13.6 °C -13.8 °C 34865.6 hPa West 2.6 km/h 12.9 km/h 97 % 0 mm
18:12 -13.6 °C -13.8 °C 34865.6 hPa SW 2.6 km/h 15.6 km/h 97 % 0 mm
18:17 -13.6 °C -13.8 °C 34865.6 hPa Calm   15.6 km/h 97 % 0 mm
18:22 -13.6 °C -13.8 °C 34865.6 hPa WSW 2.6 km/h 15.6 km/h 97 % 0 mm
18:32 -13.6 °C -13.8 °C 34875.8 hPa Calm   10.3 km/h 97 % 0 mm
18:37 -13.6 °C -13.8 °C 34875.8 hPa Calm   10.3 km/h 97 % 0 mm
18:42 -13.6 °C -13.8 °C 34865.6 hPa WSW 5.1 km/h 10.3 km/h 97 % 0 mm
18:47 -13.6 °C -13.8 °C 34865.6 hPa Calm   7.7 km/h 97 % 0 mm
18:52 -13.6 °C -13.8 °C 34865.6 hPa SSW 5.1 km/h 7.7 km/h 97 % 0 mm
19:02 -13.5 °C -13.7 °C 34875.8 hPa Calm   10.3 km/h 97 % 0 mm
19:07 -13.5 °C -13.7 °C 34875.8 hPa Calm   7.7 km/h 97 % 0 mm
19:12 -13.4 °C -13.7 °C 34875.8 hPa Calm   10.3 km/h 97 % 0 mm
19:17 -13.4 °C -13.7 °C 34875.8 hPa Calm   10.3 km/h 97 % 0 mm
19:22 -13.4 °C -13.7 °C 34875.8 hPa South 2.6 km/h 10.3 km/h 97 % 0 mm
19:27 -13.4 °C -13.7 °C 34875.8 hPa Calm   7.7 km/h 97 % 0 mm
19:39 -13.4 °C -13.6 °C 34875.8 hPa SSW 2.6 km/h 7.7 km/h 97 % 0 mm
19:47 -13.4 °C -13.6 °C 34875.8 hPa Calm   12.9 km/h 97 % 0 mm
19:57 -13.3 °C -13.6 °C 34889.3 hPa SSW 2.6 km/h 7.7 km/h 97 % 0 mm
20:02 -13.3 °C -13.5 °C 34875.8 hPa Calm   7.7 km/h 97 % 0 mm
20:17 -13.2 °C -13.4 °C 34889.3 hPa SSW 5.1 km/h 7.7 km/h 97 % 7.62 mm
20:27 -13.2 °C -13.4 °C 34889.3 hPa Calm   10.3 km/h 97 % 7.62 mm
20:32 -13.2 °C -13.4 °C 34889.3 hPa SSW 2.6 km/h 10.3 km/h 97 % 7.62 mm
20:42 -13.1 °C -13.3 °C 34889.3 hPa Calm   7.7 km/h 97 % 7.62 mm
20:47 -13.1 °C -13.3 °C 34889.3 hPa SW 2.6 km/h 7.7 km/h 98 % 7.62 mm
20:57 -13.1 °C -13.3 °C 34889.3 hPa Calm   7.7 km/h 97 % 7.62 mm
21:02 -13.1 °C -13.3 °C 34889.3 hPa Calm   7.7 km/h 97 % 7.62 mm
21:07 -13 °C -13.2 °C 34889.3 hPa Calm   7.7 km/h 97 % 0 mm
21:17 -13 °C -13.2 °C 34889.3 hPa Calm   5.1 km/h 97 % 0 mm
21:27 -13 °C -13.2 °C 34889.3 hPa SW 2.6 km/h 5.1 km/h 97 % 0 mm
21:37 -13 °C -13.2 °C 34889.3 hPa Calm   5.1 km/h 97 % 0 mm
21:42 -13 °C -13.2 °C 34889.3 hPa Calm   2.6 km/h 97 % 0 mm
21:52 -13 °C -13.2 °C 34889.3 hPa Calm   2.6 km/h 97 % 0 mm
21:57 -13 °C -13.2 °C 34889.3 hPa Calm     97 % 0 mm
22:02 -13 °C -13.2 °C 34889.3 hPa Calm     97 % 0 mm
22:12 -12.9 °C -13.1 °C 34889.3 hPa Calm   2.6 km/h 98 % 0 mm
22:17 -12.9 °C -13.1 °C 34889.3 hPa Calm   2.6 km/h 98 % 0 mm
22:22 -12.9 °C -13.1 °C 34889.3 hPa Calm   2.6 km/h 98 % 0 mm
22:27 -12.9 °C -13.2 °C 34889.3 hPa Calm   2.6 km/h 97 % 0 mm
22:32 -12.9 °C -13.1 °C 34889.3 hPa Calm   2.6 km/h 98 % 0 mm
22:42 -12.9 °C -13.1 °C 34899.5 hPa Calm   2.6 km/h 98 % 0 mm
22:52 -12.9 °C -13.2 °C 34899.5 hPa SSE 2.6 km/h 7.7 km/h 97 % 0 mm
23:02 -12.8 °C -13.1 °C 34899.5 hPa WSW 2.6 km/h 5.1 km/h 97 % 7.62 mm
23:12 -12.8 °C -13.1 °C 34899.5 hPa Calm   2.6 km/h 97 % 7.62 mm
23:22 -12.8 °C -13.1 °C 34899.5 hPa South 2.6 km/h 7.7 km/h 97 % 7.62 mm
23:44 -12.7 °C -13.1 °C 34899.5 hPa Calm   12.9 km/h 96 % 7.62 mm
23:52 -12.7 °C -13.1 °C 34899.5 hPa SSW 2.6 km/h 5.1 km/h 96 % 7.62 mm
Meteo18
Compliments of Weather Underground - 4 mb

Script developed by  Jim McMurry - jmcmurry@mwt.net Adapted for the template by  Wim van der Kuil - Leuven-Template.eu

You find our weather info also at:

European Weather Network

Weather Underground

Equipment we use:

Weather-station
Davis Vue

Weather-program
Meteobridge

Weather-server
Raspberry PI 2 B+

Provider
1 and 1

Davis Vue

Meteobridge

Raspberry PI 2 B+

1 and 1